createdAt,value
2023-02-14T00:02:00.102Z,7.70
2023-02-14T00:04:26.560Z,7.75
2023-02-14T00:06:52.985Z,6.88
2023-02-14T00:09:19.814Z,7.30
2023-02-14T00:11:46.335Z,6.00
2023-02-14T00:14:32.173Z,7.25
2023-02-14T00:16:58.728Z,6.95
2023-02-14T00:19:25.081Z,7.45
2023-02-14T00:21:51.860Z,5.63
2023-02-14T00:24:22.848Z,7.32
2023-02-14T00:26:49.941Z,8.00
2023-02-14T00:29:22.067Z,8.27
2023-02-14T00:31:48.644Z,9.05
2023-02-14T00:34:15.601Z,9.10
2023-02-14T00:36:42.040Z,9.60
2023-02-14T00:39:09.614Z,8.63
2023-02-14T00:41:35.920Z,6.05
2023-02-14T00:44:02.641Z,4.50
2023-02-14T00:46:29.195Z,3.92
2023-02-14T00:48:55.613Z,3.55
2023-02-14T00:51:22.037Z,3.65
2023-02-14T00:53:49.420Z,3.78
2023-02-14T00:56:16.136Z,3.88
2023-02-14T00:58:42.698Z,3.40
2023-02-14T01:01:09.511Z,3.15
2023-02-14T01:03:36.547Z,3.10
2023-02-14T01:06:02.904Z,2.65
2023-02-14T01:08:29.354Z,2.85
2023-02-14T01:10:55.755Z,2.88
2023-02-14T01:13:22.102Z,3.15
2023-02-14T01:15:50.810Z,2.95
2023-02-14T01:18:17.996Z,3.17
2023-02-14T01:20:44.541Z,3.25
2023-02-14T01:23:11.430Z,2.80
2023-02-14T01:25:38.108Z,3.05
2023-02-14T01:28:04.822Z,3.10
2023-02-14T01:30:31.504Z,3.03
2023-02-14T01:32:58.327Z,2.95
2023-02-14T01:35:24.887Z,3.13
2023-02-14T01:37:51.229Z,3.25
2023-02-14T01:40:17.613Z,3.90
2023-02-14T01:42:44.015Z,4.05
2023-02-14T01:45:16.573Z,3.55
2023-02-14T01:47:44.312Z,3.92
2023-02-14T01:50:14.771Z,3.67
2023-02-14T01:52:43.755Z,3.67
2023-02-14T01:55:12.475Z,2.97
2023-02-14T01:57:43.609Z,2.83
2023-02-14T02:00:29.105Z,3.05
2023-02-14T02:02:56.828Z,3.20
2023-02-14T02:05:23.819Z,3.15
2023-02-14T02:07:55.305Z,3.15
2023-02-14T02:10:21.776Z,3.50
2023-02-14T02:12:49.191Z,2.90
2023-02-14T02:15:16.019Z,3.08
2023-02-14T02:17:48.855Z,3.33
2023-02-14T02:20:15.159Z,2.80
2023-02-14T02:22:41.563Z,2.78
2023-02-14T02:25:19.830Z,2.95
2023-02-14T02:28:04.733Z,3.30
2023-02-14T02:30:46.278Z,3.00
2023-02-14T02:33:12.737Z,2.80
2023-02-14T02:35:44.958Z,3.08
2023-02-14T02:38:14.124Z,2.47
2023-02-14T02:40:53.767Z,2.83
2023-02-14T02:43:38.801Z,2.63
2023-02-14T02:46:27.743Z,3.40
2023-02-14T02:48:59.701Z,3.22
2023-02-14T02:51:52.547Z,2.97
2023-02-14T02:54:38.836Z,3.75
2023-02-14T02:59:33.136Z,3.38
2023-02-14T03:02:22.954Z,2.70
2023-02-14T03:04:55.299Z,2.28
2023-02-14T03:07:35.877Z,3.20
2023-02-14T03:10:13.331Z,3.05
2023-02-14T03:12:58.747Z,3.25
2023-02-14T03:15:27.966Z,3.13
2023-02-14T03:18:00.161Z,2.78
2023-02-14T03:20:37.513Z,3.50
2023-02-14T03:23:03.841Z,3.67
2023-02-14T03:25:36.437Z,3.65
2023-02-14T03:28:12.177Z,3.30
2023-02-14T03:30:57.580Z,2.63
2023-02-14T03:33:30.397Z,3.40
2023-02-14T03:36:02.586Z,3.10
2023-02-14T03:38:39.447Z,2.53
2023-02-14T03:41:08.958Z,2.97
2023-02-14T03:43:47.276Z,3.22
2023-02-14T03:46:16.382Z,2.00
2023-02-14T03:48:43.173Z,3.00
2023-02-14T03:51:11.613Z,2.60
2023-02-14T03:53:40.202Z,2.83
2023-02-14T03:56:18.588Z,2.97
2023-02-14T03:58:46.885Z,2.60
2023-02-14T04:01:33.665Z,2.70
2023-02-14T04:04:00.687Z,2.33
2023-02-14T04:06:27.118Z,2.22
2023-02-14T04:08:53.615Z,2.75
2023-02-14T04:11:20.245Z,2.33
2023-02-14T04:13:46.656Z,2.60
2023-02-14T04:16:13.120Z,2.60
2023-02-14T04:18:58.093Z,2.70
2023-02-14T04:21:24.513Z,2.42
2023-02-14T04:23:50.822Z,1.60
2023-02-14T04:26:17.277Z,2.17
2023-02-14T04:28:43.602Z,2.10
2023-02-14T04:31:11.381Z,1.90
2023-02-14T04:33:39.244Z,2.40
2023-02-14T04:36:05.780Z,2.60
2023-02-14T04:38:32.548Z,2.55
2023-02-14T04:40:59.239Z,2.45
2023-02-14T04:43:25.909Z,2.17
2023-02-14T04:45:52.226Z,2.55
2023-02-14T04:48:18.574Z,2.40
2023-02-14T04:50:45.313Z,3.10
2023-02-14T04:53:11.681Z,2.72
2023-02-14T04:55:38.246Z,2.40
2023-02-14T04:58:04.656Z,2.95
2023-02-14T05:00:31.003Z,3.00
2023-02-14T05:02:57.479Z,2.83
2023-02-14T05:05:23.823Z,3.13
2023-02-14T05:07:50.149Z,3.13
2023-02-14T05:10:16.625Z,3.25
2023-02-14T05:12:43.034Z,3.03
2023-02-14T05:15:09.667Z,3.20
2023-02-14T05:17:36.283Z,2.97
2023-02-14T05:20:03.886Z,3.00
2023-02-14T05:22:30.292Z,3.17
2023-02-14T05:24:56.647Z,3.15
2023-02-14T05:27:23.021Z,2.85
2023-02-14T05:29:49.434Z,2.72
2023-02-14T05:32:15.838Z,3.20
2023-02-14T05:34:42.172Z,3.05
2023-02-14T05:37:08.543Z,2.92
2023-02-14T05:39:34.923Z,3.13
2023-02-14T05:42:01.244Z,3.00
2023-02-14T05:44:27.551Z,2.90
2023-02-14T05:46:54.892Z,2.78
2023-02-14T05:49:21.330Z,2.30
2023-02-14T05:51:47.730Z,2.30
2023-02-14T05:54:14.041Z,2.13
2023-02-14T05:56:40.401Z,2.58
2023-02-14T05:59:06.825Z,2.45
2023-02-14T06:01:33.181Z,3.03
2023-02-14T06:04:00.216Z,2.88
2023-02-14T06:06:26.730Z,2.88
2023-02-14T06:08:53.163Z,2.63
2023-02-14T06:11:19.675Z,2.60
2023-02-14T06:13:45.987Z,2.22
2023-02-14T06:16:12.390Z,2.53
2023-02-14T06:18:39.101Z,1.95
2023-02-14T06:21:05.564Z,2.22
2023-02-14T06:23:31.861Z,2.72
2023-02-14T06:25:58.173Z,2.83
2023-02-14T06:28:24.484Z,2.38
2023-02-14T06:30:51.367Z,2.47
2023-02-14T06:33:17.765Z,2.22
2023-02-14T06:35:44.172Z,3.00
2023-02-14T06:38:10.499Z,3.78
2023-02-14T06:40:36.915Z,3.70
2023-02-14T06:43:03.353Z,3.47
2023-02-14T06:45:29.827Z,2.47
2023-02-14T06:47:56.161Z,2.70
2023-02-14T06:50:22.595Z,3.20
2023-02-14T06:52:49.017Z,2.30
2023-02-14T06:55:15.399Z,2.25
2023-02-14T06:57:41.946Z,3.00
2023-02-14T07:00:10.001Z,2.35
2023-02-14T07:02:36.416Z,3.22
2023-02-14T07:05:02.822Z,2.50
2023-02-14T07:07:29.278Z,2.45
2023-02-14T07:09:55.698Z,3.00
2023-02-14T07:12:22.071Z,2.90
2023-02-14T07:14:48.369Z,3.65
2023-02-14T07:17:14.694Z,3.35
2023-02-14T07:19:41.150Z,3.83
2023-02-14T07:22:07.541Z,4.05
2023-02-14T07:24:33.951Z,4.07
2023-02-14T07:27:00.416Z,4.85
2023-02-14T07:29:26.855Z,4.30
2023-02-14T07:31:53.808Z,5.53
2023-02-14T07:34:20.217Z,5.82
2023-02-14T07:36:46.864Z,5.82
2023-02-14T07:39:13.377Z,8.43
2023-02-14T07:41:39.799Z,8.73
2023-02-14T07:44:06.178Z,9.07
2023-02-14T07:46:32.556Z,6.60
2023-02-14T07:48:58.932Z,6.68
2023-02-14T07:51:25.439Z,7.10
2023-02-14T07:53:51.739Z,8.38
2023-02-14T07:56:18.203Z,6.57
2023-02-14T07:58:44.629Z,6.78
2023-02-14T08:01:11.116Z,6.68
2023-02-14T08:03:37.541Z,8.00
2023-02-14T08:06:03.948Z,5.95
2023-02-14T08:08:31.045Z,7.15
2023-02-14T08:10:57.759Z,6.57
2023-02-14T08:13:24.395Z,6.97
2023-02-14T08:16:06.270Z,7.72
2023-02-14T08:18:34.842Z,8.65
2023-02-14T08:21:01.804Z,7.43
2023-02-14T08:23:28.684Z,8.13
2023-02-14T08:25:55.075Z,7.32
2023-02-14T08:28:24.018Z,7.38
2023-02-14T08:30:50.960Z,8.52
2023-02-14T08:33:17.446Z,8.70
2023-02-14T08:35:43.907Z,9.05
2023-02-14T08:38:10.594Z,8.35
2023-02-14T08:40:37.390Z,8.60
2023-02-14T08:43:07.548Z,8.95
2023-02-14T08:45:34.052Z,14.25
2023-02-14T08:48:01.294Z,8.48
2023-02-14T08:50:27.827Z,12.27
2023-02-14T08:52:54.269Z,14.40
2023-02-14T08:55:20.644Z,12.20
2023-02-14T08:57:49.288Z,15.27
2023-02-14T09:00:15.806Z,12.82
2023-02-14T09:02:42.227Z,15.77
2023-02-14T09:05:10.535Z,15.70
2023-02-14T09:07:36.908Z,10.88
2023-02-14T09:10:03.422Z,15.52
2023-02-14T09:12:29.804Z,10.68
2023-02-14T09:14:56.217Z,19.95
2023-02-14T09:17:22.651Z,16.85
2023-02-14T09:19:49.162Z,12.73
2023-02-14T09:22:15.528Z,15.23
2023-02-14T09:24:41.910Z,16.75
2023-02-14T09:27:08.578Z,20.85
2023-02-14T09:29:35.257Z,19.63
2023-02-14T09:32:02.044Z,17.52
2023-02-14T09:34:28.945Z,20.30
2023-02-14T09:36:55.325Z,16.85
2023-02-14T09:39:21.818Z,17.38
2023-02-14T09:41:48.155Z,15.48
2023-02-14T09:44:20.624Z,22.92
2023-02-14T09:46:50.417Z,21.90
2023-02-14T09:49:19.256Z,22.63
2023-02-14T09:51:48.276Z,22.20
2023-02-14T09:54:17.890Z,23.05
2023-02-14T09:56:57.439Z,21.67
2023-02-14T09:59:39.936Z,22.23
2023-02-14T10:02:21.452Z,20.70
2023-02-14T10:04:57.745Z,22.35
2023-02-14T10:07:33.646Z,19.98
2023-02-14T10:09:59.949Z,22.30
2023-02-14T10:12:26.263Z,15.93
2023-02-14T10:14:55.404Z,23.70
2023-02-14T10:17:42.024Z,22.45
2023-02-14T10:20:37.662Z,23.10
2023-02-14T10:23:17.390Z,16.02
2023-02-14T10:25:49.896Z,19.20
2023-02-14T10:28:17.756Z,16.65
2023-02-14T10:30:49.654Z,12.70
2023-02-14T10:33:17.692Z,22.92
2023-02-14T10:35:50.978Z,20.75
2023-02-14T10:38:35.886Z,18.73
2023-02-14T10:41:02.373Z,22.58
2023-02-14T10:43:28.684Z,24.10
2023-02-14T10:45:57.903Z,22.25
2023-02-14T10:48:36.619Z,22.00
2023-02-14T10:51:03.064Z,22.80
2023-02-14T10:53:36.393Z,19.52
2023-02-14T10:56:05.764Z,20.92
2023-02-14T10:58:34.200Z,20.00
2023-02-14T11:01:14.121Z,14.77
2023-02-14T11:03:44.030Z,17.23
2023-02-14T11:06:10.755Z,21.77
2023-02-14T11:08:38.715Z,14.25
2023-02-14T11:11:05.201Z,22.58
2023-02-14T11:13:33.762Z,9.85
2023-02-14T11:16:01.800Z,21.45
2023-02-14T11:18:39.508Z,22.17
2023-02-14T11:21:13.633Z,21.05
2023-02-14T11:23:42.177Z,19.60
2023-02-14T11:26:10.471Z,23.63
2023-02-14T11:28:37.901Z,23.42
2023-02-14T11:31:05.399Z,25.10
2023-02-14T11:33:34.986Z,25.05
2023-02-14T11:36:03.093Z,12.20
2023-02-14T11:38:32.014Z,24.98
2023-02-14T11:40:59.993Z,25.23
2023-02-14T11:43:31.410Z,17.33
2023-02-14T11:46:08.843Z,14.90
2023-02-14T11:48:38.884Z,19.63
2023-02-14T11:51:10.801Z,22.85
2023-02-14T11:53:51.986Z,18.90
2023-02-14T11:56:19.088Z,19.15
2023-02-14T11:58:45.409Z,23.80
2023-02-14T12:01:14.044Z,20.90
2023-02-14T12:03:44.932Z,22.90
2023-02-14T12:06:12.038Z,21.65
2023-02-14T12:08:41.871Z,22.88
2023-02-14T12:11:21.400Z,18.10
2023-02-14T12:13:54.767Z,13.52
2023-02-14T12:16:24.152Z,12.13
2023-02-14T12:18:56.403Z,24.25
2023-02-14T12:21:44.160Z,18.33
2023-02-14T12:24:16.782Z,25.63
2023-02-14T12:26:49.784Z,25.77
2023-02-14T12:29:26.153Z,11.50
2023-02-14T12:31:53.499Z,21.17
2023-02-14T12:34:20.432Z,15.38
2023-02-14T12:36:49.850Z,22.95
2023-02-14T12:39:35.437Z,21.15
2023-02-14T12:42:20.274Z,25.60
2023-02-14T12:44:57.687Z,23.63
2023-02-14T12:47:43.226Z,24.63
2023-02-14T12:50:14.263Z,16.63
2023-02-14T12:52:47.099Z,19.73
2023-02-14T12:55:22.295Z,22.23
2023-02-14T12:57:57.883Z,19.70
2023-02-14T13:00:24.256Z,25.83
2023-02-14T13:03:03.840Z,22.23
2023-02-14T13:05:43.781Z,24.00
2023-02-14T13:08:16.090Z,14.32
2023-02-14T13:10:52.253Z,16.13
2023-02-14T13:13:37.424Z,21.77
2023-02-14T13:16:17.053Z,22.50
2023-02-14T13:18:47.444Z,23.60
2023-02-14T13:21:15.094Z,18.80
2023-02-14T13:23:43.677Z,22.90
2023-02-14T13:26:10.170Z,17.45
2023-02-14T13:28:37.456Z,23.73
2023-02-14T13:31:04.873Z,23.40
2023-02-14T13:33:37.948Z,23.88
2023-02-14T13:36:07.702Z,14.38
2023-02-14T13:38:37.204Z,23.67
2023-02-14T13:41:05.403Z,24.70
2023-02-14T13:43:51.050Z,21.15
2023-02-14T13:46:22.484Z,23.70
2023-02-14T13:48:58.261Z,20.52
2023-02-14T13:51:43.320Z,24.00
2023-02-14T13:54:21.605Z,19.40
2023-02-14T13:56:48.224Z,23.52
2023-02-14T13:59:46.751Z,23.10
2023-02-14T14:02:42.581Z,23.73
2023-02-14T14:05:29.196Z,24.50
2023-02-14T14:08:14.082Z,23.70
2023-02-14T14:10:42.993Z,22.10
2023-02-14T14:13:09.374Z,24.85
2023-02-14T14:15:35.712Z,23.30
2023-02-14T14:18:13.974Z,23.27
2023-02-14T14:20:43.856Z,24.73
2023-02-14T14:23:28.908Z,25.13
2023-02-14T14:25:55.470Z,14.10
2023-02-14T14:28:25.990Z,16.23
2023-02-14T14:30:52.530Z,23.08
2023-02-14T14:33:24.856Z,18.50
2023-02-14T14:35:55.737Z,20.60
2023-02-14T14:38:22.451Z,22.23
2023-02-14T14:40:49.718Z,21.98
2023-02-14T14:43:25.552Z,22.52
2023-02-14T14:48:27.685Z,22.95
2023-02-14T14:50:54.069Z,22.92
2023-02-14T14:53:26.693Z,23.70
2023-02-14T14:55:54.785Z,23.27
2023-02-14T14:58:47.598Z,23.75
2023-02-14T15:01:27.559Z,24.60
2023-02-14T15:03:54.817Z,23.73
2023-02-14T15:06:21.537Z,23.08
2023-02-14T15:08:48.713Z,9.75
2023-02-14T15:11:44.788Z,26.02
2023-02-14T15:14:15.300Z,25.58
2023-02-14T15:16:51.889Z,24.92
2023-02-14T15:19:18.206Z,25.45
2023-02-14T15:21:45.449Z,26.88
2023-02-14T15:24:14.642Z,27.55
2023-02-14T15:26:43.047Z,25.00
2023-02-14T15:29:20.800Z,26.38
2023-02-14T15:31:47.438Z,26.25
2023-02-14T15:34:14.108Z,25.05
2023-02-14T15:36:41.558Z,19.50
2023-02-14T15:39:09.499Z,24.63
2023-02-14T15:41:36.124Z,27.23
2023-02-14T15:44:02.421Z,27.13
2023-02-14T15:46:36.824Z,26.33
2023-02-14T15:49:06.935Z,25.23
2023-02-14T15:51:36.255Z,25.65
2023-02-14T15:54:04.050Z,24.70
2023-02-14T15:56:31.719Z,26.65
2023-02-14T15:59:05.288Z,26.13
2023-02-14T16:01:32.447Z,25.38
2023-02-14T16:04:00.324Z,24.70
2023-02-14T16:06:32.864Z,26.00
2023-02-14T16:08:59.321Z,26.50
2023-02-14T16:11:30.818Z,22.30
2023-02-14T16:13:57.481Z,25.10
2023-02-14T16:16:23.870Z,24.08
2023-02-14T16:18:56.523Z,23.60
2023-02-14T16:21:25.859Z,26.13
2023-02-14T16:24:07.266Z,26.05
2023-02-14T16:26:34.597Z,24.52
2023-02-14T16:29:04.677Z,26.42
2023-02-14T16:31:31.843Z,27.45
2023-02-14T16:33:58.339Z,26.77
2023-02-14T16:36:26.847Z,26.52
2023-02-14T16:38:53.811Z,26.30
2023-02-14T16:41:24.714Z,26.95
2023-02-14T16:43:51.108Z,27.40
2023-02-14T16:46:21.912Z,25.52
2023-02-14T16:48:52.355Z,24.20
2023-02-14T16:51:20.253Z,26.02
2023-02-14T16:53:46.821Z,27.05
2023-02-14T16:56:16.896Z,26.40
2023-02-14T16:58:43.513Z,28.27
2023-02-14T17:01:09.981Z,27.35
2023-02-14T17:03:36.454Z,28.55
2023-02-14T17:06:02.961Z,25.98
2023-02-14T17:08:29.736Z,25.98
2023-02-14T17:10:57.256Z,26.08
2023-02-14T17:13:25.057Z,32.08
2023-02-14T17:15:51.800Z,29.83
2023-02-14T17:18:20.426Z,28.98
2023-02-14T17:20:47.234Z,28.23
2023-02-14T17:23:13.603Z,30.08
2023-02-14T17:25:39.997Z,29.95
2023-02-14T17:28:06.383Z,28.73
2023-02-14T17:30:32.835Z,29.05
2023-02-14T17:32:59.283Z,30.45
2023-02-14T17:35:26.128Z,30.10
2023-02-14T17:37:52.576Z,30.67
2023-02-14T17:40:19.000Z,32.20
2023-02-14T17:42:45.951Z,29.65
2023-02-14T17:45:12.320Z,29.70
2023-02-14T17:47:40.477Z,28.42
2023-02-14T17:50:07.242Z,29.02
2023-02-14T17:52:34.438Z,28.90
2023-02-14T17:55:00.762Z,28.13
2023-02-14T17:57:27.416Z,27.98
2023-02-14T17:59:53.855Z,29.00
2023-02-14T18:02:20.346Z,28.48
2023-02-14T18:04:48.375Z,26.73
2023-02-14T18:07:14.893Z,28.38
2023-02-14T18:09:41.539Z,29.75
2023-02-14T18:12:10.290Z,30.00
2023-02-14T18:14:38.694Z,28.08
2023-02-14T18:17:05.832Z,29.58
2023-02-14T18:19:32.480Z,28.45
2023-02-14T18:21:58.956Z,28.85
2023-02-14T18:24:25.433Z,29.85
2023-02-14T18:26:51.784Z,28.20
2023-02-14T18:29:18.257Z,27.50
2023-02-14T18:31:44.872Z,27.88
2023-02-14T18:34:11.280Z,30.02
2023-02-14T18:36:38.925Z,28.77
2023-02-14T18:39:06.017Z,27.33
2023-02-14T18:41:32.443Z,29.77
2023-02-14T18:43:58.922Z,28.63
2023-02-14T18:46:27.112Z,28.75
2023-02-14T18:48:53.829Z,28.77
2023-02-14T18:51:21.880Z,29.15
2023-02-14T18:53:52.150Z,30.02
2023-02-14T18:56:19.707Z,27.52
2023-02-14T18:58:48.053Z,30.13
2023-02-14T19:01:15.649Z,27.90
2023-02-14T19:03:42.479Z,30.17
2023-02-14T19:06:10.155Z,29.40
2023-02-14T19:08:38.213Z,30.30
2023-02-14T19:11:09.241Z,30.58
2023-02-14T19:13:35.753Z,30.70
2023-02-14T19:16:08.935Z,31.00
2023-02-14T19:18:35.313Z,31.25
2023-02-14T19:21:12.157Z,31.65
2023-02-14T19:23:38.466Z,30.98
2023-02-14T19:26:15.919Z,30.77
2023-02-14T19:28:42.712Z,30.10
2023-02-14T19:31:09.299Z,31.10
2023-02-14T19:33:43.079Z,31.33
2023-02-14T19:36:12.753Z,29.45
2023-02-14T19:38:43.166Z,29.40
2023-02-14T19:41:30.176Z,32.42
2023-02-14T19:43:57.802Z,29.48
2023-02-14T19:46:24.758Z,29.70
2023-02-14T19:48:51.434Z,29.83
2023-02-14T19:51:20.428Z,31.48
2023-02-14T19:53:46.852Z,8.85
2023-02-14T19:56:13.475Z,8.50
2023-02-14T19:58:40.985Z,30.48
2023-02-14T20:01:07.356Z,29.73
2023-02-14T20:03:35.562Z,27.65
2023-02-14T20:06:02.061Z,25.77
2023-02-14T20:08:28.425Z,17.48
2023-02-14T20:10:54.739Z,16.50
2023-02-14T20:13:21.080Z,23.40
2023-02-14T20:15:47.568Z,19.48
2023-02-14T20:18:14.013Z,23.42
2023-02-14T20:21:03.288Z,27.42
2023-02-14T20:23:31.386Z,27.15
2023-02-14T20:25:57.774Z,27.50
2023-02-14T20:28:24.117Z,22.90
2023-02-14T20:30:50.673Z,24.08
2023-02-14T20:33:17.040Z,26.73
2023-02-14T20:35:43.427Z,23.65
2023-02-14T20:38:09.853Z,25.05
2023-02-14T20:40:39.691Z,23.83
2023-02-14T20:43:06.132Z,24.63
2023-02-14T20:45:33.004Z,21.38
2023-02-14T20:48:03.323Z,22.75
2023-02-14T20:50:30.407Z,11.80
2023-02-14T20:52:56.758Z,13.60
2023-02-14T20:55:23.078Z,21.95
2023-02-14T20:57:49.495Z,20.30
2023-02-14T21:00:15.915Z,17.73
2023-02-14T21:02:42.288Z,21.75
2023-02-14T21:05:08.635Z,20.55
2023-02-14T21:07:35.092Z,15.20
2023-02-14T21:10:01.508Z,20.25
2023-02-14T21:12:27.959Z,23.67
2023-02-14T21:14:54.350Z,23.05
2023-02-14T21:17:20.683Z,23.27
2023-02-14T21:19:47.270Z,24.05
2023-02-14T21:22:13.698Z,26.42
2023-02-14T21:24:40.273Z,24.80
2023-02-14T21:27:06.590Z,24.90
2023-02-14T21:29:32.915Z,26.42
2023-02-14T21:32:01.724Z,26.40
2023-02-14T21:34:29.299Z,24.38
2023-02-14T21:36:56.297Z,24.48
2023-02-14T21:39:27.410Z,24.23
2023-02-14T21:41:54.290Z,23.15
2023-02-14T21:44:40.957Z,24.92
2023-02-14T21:47:07.400Z,24.77
2023-02-14T21:49:52.349Z,23.75
2023-02-14T21:52:18.761Z,24.77
2023-02-14T21:54:45.097Z,23.42
2023-02-14T21:57:11.439Z,24.90
2023-02-14T21:59:40.172Z,27.05
2023-02-14T22:02:06.712Z,22.00
2023-02-14T22:04:33.979Z,27.27
2023-02-14T22:07:00.580Z,25.88
2023-02-14T22:09:27.021Z,26.15
2023-02-14T22:11:53.422Z,26.77
2023-02-14T22:14:19.861Z,24.67
2023-02-14T22:16:46.181Z,25.40
2023-02-14T22:19:15.054Z,25.48
2023-02-14T22:21:42.240Z,24.33
2023-02-14T22:24:08.815Z,25.65
2023-02-14T22:26:38.817Z,24.27
2023-02-14T22:29:05.654Z,26.20
2023-02-14T22:31:33.938Z,25.52
2023-02-14T22:34:00.448Z,27.20
2023-02-14T22:36:26.811Z,25.55
2023-02-14T22:38:53.270Z,25.13
2023-02-14T22:41:20.710Z,24.55
2023-02-14T22:43:47.492Z,26.73
2023-02-14T22:46:13.972Z,12.23
2023-02-14T22:48:40.800Z,15.50
2023-02-14T22:51:11.054Z,28.40
2023-02-14T22:53:38.209Z,27.30
2023-02-14T22:56:15.260Z,26.92
2023-02-14T22:58:41.978Z,25.67
2023-02-14T23:01:13.047Z,24.30
2023-02-14T23:03:39.390Z,24.17
2023-02-14T23:06:05.785Z,21.08
2023-02-14T23:08:32.128Z,19.27
2023-02-14T23:11:05.444Z,16.50
2023-02-14T23:13:50.334Z,17.70
2023-02-14T23:16:35.468Z,18.23
2023-02-14T23:19:20.161Z,16.33
2023-02-14T23:21:55.573Z,17.60
2023-02-14T23:24:22.391Z,16.05
2023-02-14T23:26:49.115Z,15.82
2023-02-14T23:29:15.527Z,16.05
2023-02-14T23:31:42.116Z,16.50
2023-02-14T23:34:08.552Z,14.40
2023-02-14T23:36:34.991Z,14.23
2023-02-14T23:39:01.442Z,14.65
2023-02-14T23:41:46.649Z,13.02
2023-02-14T23:44:24.073Z,10.57
2023-02-14T23:46:51.942Z,10.15
2023-02-14T23:49:18.580Z,11.63
2023-02-14T23:51:45.515Z,11.80
2023-02-14T23:54:12.362Z,11.02
2023-02-14T23:56:39.331Z,11.80
2023-02-14T23:59:06.049Z,13.02
